sensor_id;sensor_type;location;lat;lon;timestamp;pressure;altitude;pressure_sealevel;temperature;humidity
74973;BME280;63529;56.320;43.990;2023-04-03T00:00:13;99837.97;;;4.60;74.82
74973;BME280;63529;56.320;43.990;2023-04-03T00:02:39;99829.22;;;4.60;74.89
74973;BME280;63529;56.320;43.990;2023-04-03T00:05:06;99839.81;;;4.60;74.74
74973;BME280;63529;56.320;43.990;2023-04-03T00:07:33;99837.38;;;4.58;74.80
74973;BME280;63529;56.320;43.990;2023-04-03T00:09:58;99837.63;;;4.57;74.83
74973;BME280;63529;56.320;43.990;2023-04-03T00:12:24;99836.81;;;4.56;75.02
74973;BME280;63529;56.320;43.990;2023-04-03T00:14:50;99842.91;;;4.57;75.10
74973;BME280;63529;56.320;43.990;2023-04-03T00:17:16;99837.81;;;4.55;75.12
74973;BME280;63529;56.320;43.990;2023-04-03T00:19:42;99832.53;;;4.55;75.20
74973;BME280;63529;56.320;43.990;2023-04-03T00:22:07;99838.84;;;4.54;75.16
74973;BME280;63529;56.320;43.990;2023-04-03T00:24:33;99840.03;;;4.58;75.29
74973;BME280;63529;56.320;43.990;2023-04-03T00:26:59;99841.63;;;4.59;75.38
74973;BME280;63529;56.320;43.990;2023-04-03T00:29:25;99833.25;;;4.62;75.33
74973;BME280;63529;56.320;43.990;2023-04-03T00:31:50;99848.69;;;4.66;75.44
74973;BME280;63529;56.320;43.990;2023-04-03T00:34:16;99839.72;;;4.67;75.16
74973;BME280;63529;56.320;43.990;2023-04-03T00:36:42;99839.50;;;4.68;75.04
74973;BME280;63529;56.320;43.990;2023-04-03T00:39:08;99836.03;;;4.68;75.24
74973;BME280;63529;56.320;43.990;2023-04-03T00:41:34;99833.16;;;4.69;75.10
74973;BME280;63529;56.320;43.990;2023-04-03T00:44:00;99837.22;;;4.72;75.34
74973;BME280;63529;56.320;43.990;2023-04-03T00:46:27;99844.13;;;4.73;75.14
74973;BME280;63529;56.320;43.990;2023-04-03T00:48:52;99834.34;;;4.73;75.18
74973;BME280;63529;56.320;43.990;2023-04-03T00:51:24;99833.53;;;4.73;74.93
74973;BME280;63529;56.320;43.990;2023-04-03T00:53:59;99836.41;;;4.71;74.82
74973;BME280;63529;56.320;43.990;2023-04-03T00:56:26;99840.09;;;4.70;74.86
74973;BME280;63529;56.320;43.990;2023-04-03T00:58:58;99834.44;;;4.67;74.78
74973;BME280;63529;56.320;43.990;2023-04-03T01:01:27;99827.53;;;4.66;75.07
74973;BME280;63529;56.320;43.990;2023-04-03T01:03:54;99843.63;;;4.64;75.05
74973;BME280;63529;56.320;43.990;2023-04-03T01:06:31;99845.47;;;4.63;75.11
74973;BME280;63529;56.320;43.990;2023-04-03T01:09:04;99832.44;;;4.62;75.03
74973;BME280;63529;56.320;43.990;2023-04-03T01:11:30;99838.78;;;4.61;74.83
74973;BME280;63529;56.320;43.990;2023-04-03T01:13:56;99839.56;;;4.61;74.90
74973;BME280;63529;56.320;43.990;2023-04-03T01:16:23;99824.97;;;4.59;74.83
74973;BME280;63529;56.320;43.990;2023-04-03T01:18:49;99829.69;;;4.57;74.96
74973;BME280;63529;56.320;43.990;2023-04-03T01:24:17;99837.81;;;4.55;75.16
74973;BME280;63529;56.320;43.990;2023-04-03T01:26:48;99836.22;;;4.54;74.76
74973;BME280;63529;56.320;43.990;2023-04-03T01:29:14;99841.50;;;4.54;74.91
74973;BME280;63529;56.320;43.990;2023-04-03T01:31:53;99839.06;;;4.53;74.94
74973;BME280;63529;56.320;43.990;2023-04-03T01:34:21;99834.03;;;4.51;74.76
74973;BME280;63529;56.320;43.990;2023-04-03T01:36:49;99834.69;;;4.47;74.56
74973;BME280;63529;56.320;43.990;2023-04-03T01:39:16;99836.50;;;4.46;74.61
74973;BME280;63529;56.320;43.990;2023-04-03T01:41:42;99841.22;;;4.44;74.69
74973;BME280;63529;56.320;43.990;2023-04-03T01:44:25;99834.75;;;4.40;74.87
74973;BME280;63529;56.320;43.990;2023-04-03T01:46:51;99836.59;;;4.40;75.26
74973;BME280;63529;56.320;43.990;2023-04-03T01:49:19;99832.34;;;4.39;75.15
74973;BME280;63529;56.320;43.990;2023-04-03T01:51:44;99833.38;;;4.38;75.12
74973;BME280;63529;56.320;43.990;2023-04-03T01:54:10;99831.31;;;4.40;75.46
74973;BME280;63529;56.320;43.990;2023-04-03T01:56:36;99830.28;;;4.41;75.31
74973;BME280;63529;56.320;43.990;2023-04-03T01:59:02;99832.91;;;4.41;75.38
74973;BME280;63529;56.320;43.990;2023-04-03T02:01:28;99833.50;;;4.43;75.37
74973;BME280;63529;56.320;43.990;2023-04-03T02:03:54;99824.75;;;4.42;75.41
74973;BME280;63529;56.320;43.990;2023-04-03T02:06:20;99825.56;;;4.43;75.20
74973;BME280;63529;56.320;43.990;2023-04-03T02:08:46;99831.66;;;4.43;75.38
74973;BME280;63529;56.320;43.990;2023-04-03T02:11:12;99827.41;;;4.42;75.51
74973;BME280;63529;56.320;43.990;2023-04-03T02:13:38;99829.00;;;4.43;75.34
74973;BME280;63529;56.320;43.990;2023-04-03T02:16:09;99824.56;;;4.44;75.69
74973;BME280;63529;56.320;43.990;2023-04-03T02:18:35;99824.91;;;4.47;75.74
74973;BME280;63529;56.320;43.990;2023-04-03T02:21:01;99820.44;;;4.48;75.90
74973;BME280;63529;56.320;43.990;2023-04-03T02:23:27;99828.75;;;4.51;75.84
74973;BME280;63529;56.320;43.990;2023-04-03T02:25:53;99835.41;;;4.54;75.94
74973;BME280;63529;56.320;43.990;2023-04-03T02:28:19;99826.00;;;4.58;75.72
74973;BME280;63529;56.320;43.990;2023-04-03T02:30:44;99820.50;;;4.59;75.67
74973;BME280;63529;56.320;43.990;2023-04-03T02:33:11;99826.16;;;4.63;75.53
74973;BME280;63529;56.320;43.990;2023-04-03T02:35:38;99827.53;;;4.66;75.71
74973;BME280;63529;56.320;43.990;2023-04-03T02:38:04;99826.88;;;4.70;75.66
74973;BME280;63529;56.320;43.990;2023-04-03T02:40:32;99819.28;;;4.74;75.30
74973;BME280;63529;56.320;43.990;2023-04-03T02:42:58;99815.59;;;4.75;75.44
74973;BME280;63529;56.320;43.990;2023-04-03T02:45:25;99825.75;;;4.78;75.46
74973;BME280;63529;56.320;43.990;2023-04-03T02:47:51;99825.28;;;4.81;75.32
74973;BME280;63529;56.320;43.990;2023-04-03T02:50:17;99823.25;;;4.83;75.27
74973;BME280;63529;56.320;43.990;2023-04-03T02:52:43;99815.09;;;4.84;75.44
74973;BME280;63529;56.320;43.990;2023-04-03T02:55:13;99823.16;;;4.89;75.57
74973;BME280;63529;56.320;43.990;2023-04-03T02:57:40;99819.81;;;4.94;75.53
74973;BME280;63529;56.320;43.990;2023-04-03T03:00:06;99823.63;;;4.98;75.03
74973;BME280;63529;56.320;43.990;2023-04-03T03:02:32;99822.59;;;4.99;75.06
74973;BME280;63529;56.320;43.990;2023-04-03T03:04:58;99824.56;;;5.04;75.11
74973;BME280;63529;56.320;43.990;2023-04-03T03:07:24;99828.38;;;5.08;74.98
74973;BME280;63529;56.320;43.990;2023-04-03T03:09:50;99826.09;;;5.11;74.66
74973;BME280;63529;56.320;43.990;2023-04-03T03:12:16;99841.88;;;5.18;74.73
74973;BME280;63529;56.320;43.990;2023-04-03T03:14:42;99834.88;;;5.24;74.87
74973;BME280;63529;56.320;43.990;2023-04-03T03:17:08;99834.78;;;5.30;74.55
74973;BME280;63529;56.320;43.990;2023-04-03T03:19:34;99835.91;;;5.34;74.61
74973;BME280;63529;56.320;43.990;2023-04-03T03:22:00;99836.41;;;5.43;74.41
74973;BME280;63529;56.320;43.990;2023-04-03T03:24:26;99834.22;;;5.52;74.33
74973;BME280;63529;56.320;43.990;2023-04-03T03:26:52;99829.38;;;5.60;74.13
74973;BME280;63529;56.320;43.990;2023-04-03T03:29:19;99826.19;;;5.70;74.33
74973;BME280;63529;56.320;43.990;2023-04-03T03:31:45;99830.88;;;5.80;73.94
74973;BME280;63529;56.320;43.990;2023-04-03T03:34:11;99834.59;;;5.90;73.43
74973;BME280;63529;56.320;43.990;2023-04-03T03:36:37;99831.84;;;5.97;73.29
74973;BME280;63529;56.320;43.990;2023-04-03T03:39:03;99827.47;;;6.03;72.69
74973;BME280;63529;56.320;43.990;2023-04-03T03:41:29;99830.22;;;6.08;72.76
74973;BME280;63529;56.320;43.990;2023-04-03T03:43:55;99818.72;;;6.14;72.79
74973;BME280;63529;56.320;43.990;2023-04-03T03:46:21;99826.28;;;6.22;72.66
74973;BME280;63529;56.320;43.990;2023-04-03T03:48:47;99827.06;;;6.34;72.81
74973;BME280;63529;56.320;43.990;2023-04-03T03:51:14;99823.00;;;6.43;72.34
74973;BME280;63529;56.320;43.990;2023-04-03T03:53:40;99821.94;;;6.56;72.31
74973;BME280;63529;56.320;43.990;2023-04-03T03:56:11;99816.84;;;6.66;71.96
74973;BME280;63529;56.320;43.990;2023-04-03T03:58:39;99817.59;;;6.78;71.76
74973;BME280;63529;56.320;43.990;2023-04-03T04:01:05;99824.47;;;6.91;71.31
74973;BME280;63529;56.320;43.990;2023-04-03T04:03:34;99824.19;;;7.04;71.15
74973;BME280;63529;56.320;43.990;2023-04-03T04:06:00;99819.94;;;7.20;70.76
74973;BME280;63529;56.320;43.990;2023-04-03T04:08:26;99821.31;;;7.40;70.38
74973;BME280;63529;56.320;43.990;2023-04-03T04:10:52;99822.69;;;7.59;69.93
74973;BME280;63529;56.320;43.990;2023-04-03T04:13:18;99813.41;;;7.78;69.33
74973;BME280;63529;56.320;43.990;2023-04-03T04:15:44;99816.88;;;8.01;68.68
74973;BME280;63529;56.320;43.990;2023-04-03T04:18:10;99813.50;;;8.27;68.26
74973;BME280;63529;56.320;43.990;2023-04-03T04:20:36;99810.97;;;8.54;67.56
74973;BME280;63529;56.320;43.990;2023-04-03T04:23:03;99810.53;;;8.89;66.85
74973;BME280;63529;56.320;43.990;2023-04-03T04:25:30;99812.03;;;10.19;65.20
74973;BME280;63529;56.320;43.990;2023-04-03T04:27:56;99813.09;;;12.08;60.87
74973;BME280;63529;56.320;43.990;2023-04-03T04:30:21;99819.34;;;14.23;55.78
74973;BME280;63529;56.320;43.990;2023-04-03T04:32:48;99814.94;;;16.11;51.17
74973;BME280;63529;56.320;43.990;2023-04-03T04:35:15;99810.06;;;17.57;47.78
74973;BME280;63529;56.320;43.990;2023-04-03T04:37:42;99815.78;;;18.75;45.34
74973;BME280;63529;56.320;43.990;2023-04-03T04:40:09;99807.88;;;19.86;43.69
74973;BME280;63529;56.320;43.990;2023-04-03T04:42:35;99812.28;;;21.09;41.81
74973;BME280;63529;56.320;43.990;2023-04-03T04:45:02;99813.16;;;22.12;39.48
74973;BME280;63529;56.320;43.990;2023-04-03T04:47:29;99812.59;;;22.19;38.01
74973;BME280;63529;56.320;43.990;2023-04-03T04:49:55;99821.53;;;22.56;37.19
74973;BME280;63529;56.320;43.990;2023-04-03T04:52:21;99825.34;;;22.67;36.73
74973;BME280;63529;56.320;43.990;2023-04-03T04:54:47;99821.97;;;22.70;36.54
74973;BME280;63529;56.320;43.990;2023-04-03T04:57:13;99824.00;;;22.61;36.31
74973;BME280;63529;56.320;43.990;2023-04-03T04:59:39;99823.13;;;22.45;35.99
74973;BME280;63529;56.320;43.990;2023-04-03T05:02:06;99822.88;;;22.62;36.07
74973;BME280;63529;56.320;43.990;2023-04-03T05:04:33;99826.13;;;22.92;35.51
74973;BME280;63529;56.320;43.990;2023-04-03T05:07:05;99824.00;;;23.14;34.66
74973;BME280;63529;56.320;43.990;2023-04-03T05:09:33;99818.56;;;23.14;34.13
74973;BME280;63529;56.320;43.990;2023-04-03T05:12:00;99823.31;;;23.45;33.75
74973;BME280;63529;56.320;43.990;2023-04-03T05:14:30;99825.59;;;24.02;32.88
74973;BME280;63529;56.320;43.990;2023-04-03T05:17:01;99825.22;;;24.51;32.09
74973;BME280;63529;56.320;43.990;2023-04-03T05:19:29;99818.16;;;25.21;31.44
74973;BME280;63529;56.320;43.990;2023-04-03T05:21:56;99820.41;;;25.77;30.11
74973;BME280;63529;56.320;43.990;2023-04-03T05:24:22;99816.56;;;26.31;29.84
74973;BME280;63529;56.320;43.990;2023-04-03T05:26:48;99815.56;;;26.99;29.16
74973;BME280;63529;56.320;43.990;2023-04-03T05:29:15;99807.81;;;28.20;28.05
74973;BME280;63529;56.320;43.990;2023-04-03T05:31:41;99815.84;;;29.33;26.76
74973;BME280;63529;56.320;43.990;2023-04-03T05:34:09;99813.56;;;29.50;26.38
74973;BME280;63529;56.320;43.990;2023-04-03T05:36:37;99816.31;;;29.50;26.39
74973;BME280;63529;56.320;43.990;2023-04-03T05:39:06;99819.53;;;29.87;25.90
74973;BME280;63529;56.320;43.990;2023-04-03T05:41:35;99817.91;;;30.50;25.29
74973;BME280;63529;56.320;43.990;2023-04-03T05:44:01;99817.66;;;31.22;24.23
74973;BME280;63529;56.320;43.990;2023-04-03T05:46:27;99814.81;;;32.02;23.96
74973;BME280;63529;56.320;43.990;2023-04-03T05:48:55;99815.69;;;32.75;22.93
74973;BME280;63529;56.320;43.990;2023-04-03T05:51:29;99818.72;;;33.18;22.27
74973;BME280;63529;56.320;43.990;2023-04-03T05:54:12;99821.56;;;33.68;22.05
74973;BME280;63529;56.320;43.990;2023-04-03T05:56:40;99818.16;;;34.11;21.52
74973;BME280;63529;56.320;43.990;2023-04-03T05:59:06;99818.28;;;34.47;20.96
74973;BME280;63529;56.320;43.990;2023-04-03T06:01:33;99820.28;;;34.47;20.91
74973;BME280;63529;56.320;43.990;2023-04-03T06:04:00;99817.09;;;34.01;21.29
74973;BME280;63529;56.320;43.990;2023-04-03T06:06:52;99815.69;;;33.66;21.19
74973;BME280;63529;56.320;43.990;2023-04-03T06:09:20;99820.91;;;33.61;21.64
74973;BME280;63529;56.320;43.990;2023-04-03T06:11:46;99822.28;;;33.99;21.12
74973;BME280;63529;56.320;43.990;2023-04-03T06:14:13;99826.19;;;34.49;20.70
74973;BME280;63529;56.320;43.990;2023-04-03T06:16:39;99826.84;;;34.76;20.15
74973;BME280;63529;56.320;43.990;2023-04-03T06:19:10;99820.09;;;34.97;19.86
74973;BME280;63529;56.320;43.990;2023-04-03T06:21:40;99821.63;;;35.18;19.66
74973;BME280;63529;56.320;43.990;2023-04-03T06:24:06;99820.63;;;35.28;19.62
74973;BME280;63529;56.320;43.990;2023-04-03T06:26:33;99819.56;;;35.42;19.33
74973;BME280;63529;56.320;43.990;2023-04-03T06:28:59;99817.59;;;35.39;19.01
74973;BME280;63529;56.320;43.990;2023-04-03T06:31:25;99820.25;;;35.10;19.00
74973;BME280;63529;56.320;43.990;2023-04-03T06:33:51;99812.06;;;34.83;19.32
74973;BME280;63529;56.320;43.990;2023-04-03T06:36:19;99823.94;;;35.03;19.02
74973;BME280;63529;56.320;43.990;2023-04-03T06:38:46;99811.44;;;35.31;18.80
74973;BME280;63529;56.320;43.990;2023-04-03T06:41:12;99824.00;;;35.88;18.64
74973;BME280;63529;56.320;43.990;2023-04-03T06:43:38;99814.78;;;36.40;17.99
74973;BME280;63529;56.320;43.990;2023-04-03T06:46:04;99815.75;;;36.76;17.65
74973;BME280;63529;56.320;43.990;2023-04-03T06:48:31;99813.78;;;37.31;17.13
74973;BME280;63529;56.320;43.990;2023-04-03T06:50:56;99816.78;;;37.87;17.00
74973;BME280;63529;56.320;43.990;2023-04-03T06:53:22;99818.00;;;38.34;16.55
74973;BME280;63529;56.320;43.990;2023-04-03T06:55:48;99815.09;;;38.59;16.15
74973;BME280;63529;56.320;43.990;2023-04-03T06:58:14;99820.63;;;38.72;16.01
74973;BME280;63529;56.320;43.990;2023-04-03T07:00:41;99821.75;;;38.74;15.71
74973;BME280;63529;56.320;43.990;2023-04-03T07:03:06;99824.59;;;38.84;16.00
74973;BME280;63529;56.320;43.990;2023-04-03T07:05:33;99820.63;;;39.25;15.92
74973;BME280;63529;56.320;43.990;2023-04-03T07:07:58;99816.25;;;39.55;15.11
74973;BME280;63529;56.320;43.990;2023-04-03T07:10:24;99822.00;;;38.89;15.73
74973;BME280;63529;56.320;43.990;2023-04-03T07:12:50;99829.78;;;38.03;15.76
74973;BME280;63529;56.320;43.990;2023-04-03T07:15:17;99814.00;;;37.36;16.24
74973;BME280;63529;56.320;43.990;2023-04-03T07:17:43;99829.56;;;35.88;17.00
74973;BME280;63529;56.320;43.990;2023-04-03T07:20:09;99823.28;;;35.16;17.68
74973;BME280;63529;56.320;43.990;2023-04-03T07:22:36;99824.44;;;34.78;17.82
74973;BME280;63529;56.320;43.990;2023-04-03T07:25:03;99814.38;;;35.24;17.48
74973;BME280;63529;56.320;43.990;2023-04-03T07:27:29;99828.97;;;35.81;17.12
74973;BME280;63529;56.320;43.990;2023-04-03T07:29:54;99820.50;;;36.33;16.56
74973;BME280;63529;56.320;43.990;2023-04-03T07:32:21;99814.41;;;37.09;16.25
74973;BME280;63529;56.320;43.990;2023-04-03T07:34:47;99816.84;;;38.09;15.64
74973;BME280;63529;56.320;43.990;2023-04-03T07:37:13;99817.91;;;38.81;14.89
74973;BME280;63529;56.320;43.990;2023-04-03T07:39:39;99820.47;;;38.97;15.00
74973;BME280;63529;56.320;43.990;2023-04-03T07:42:05;99828.25;;;39.24;14.57
74973;BME280;63529;56.320;43.990;2023-04-03T07:44:31;99833.50;;;39.53;14.64
74973;BME280;63529;56.320;43.990;2023-04-03T07:46:58;99831.81;;;40.24;14.25
74973;BME280;63529;56.320;43.990;2023-04-03T07:49:25;99829.63;;;40.92;14.07
74973;BME280;63529;56.320;43.990;2023-04-03T07:51:51;99829.56;;;41.01;13.87
74973;BME280;63529;56.320;43.990;2023-04-03T07:54:18;99829.28;;;40.99;13.85
74973;BME280;63529;56.320;43.990;2023-04-03T07:56:44;99830.72;;;40.67;13.75
74973;BME280;63529;56.320;43.990;2023-04-03T07:59:10;99830.13;;;40.17;14.28
74973;BME280;63529;56.320;43.990;2023-04-03T08:01:37;99822.72;;;39.83;14.43
74973;BME280;63529;56.320;43.990;2023-04-03T08:04:03;99825.72;;;39.48;14.88
74973;BME280;63529;56.320;43.990;2023-04-03T08:06:30;99818.06;;;39.08;14.95
74973;BME280;63529;56.320;43.990;2023-04-03T08:08:58;99822.84;;;38.77;15.15
74973;BME280;63529;56.320;43.990;2023-04-03T08:11:24;99831.41;;;38.83;15.37
74973;BME280;63529;56.320;43.990;2023-04-03T08:13:52;99817.09;;;39.02;15.24
74973;BME280;63529;56.320;43.990;2023-04-03T08:16:21;99827.81;;;39.04;14.94
74973;BME280;63529;56.320;43.990;2023-04-03T08:18:48;99820.31;;;38.00;15.46
74973;BME280;63529;56.320;43.990;2023-04-03T08:21:14;99828.31;;;36.67;16.17
74973;BME280;63529;56.320;43.990;2023-04-03T08:23:40;99824.69;;;35.76;16.64
74973;BME280;63529;56.320;43.990;2023-04-03T08:26:15;99824.31;;;35.42;16.61
74973;BME280;63529;56.320;43.990;2023-04-03T08:28:41;99818.88;;;35.71;16.65
74973;BME280;63529;56.320;43.990;2023-04-03T08:31:16;99827.22;;;36.03;16.67
74973;BME280;63529;56.320;43.990;2023-04-03T08:33:42;99812.81;;;35.76;16.77
74973;BME280;63529;56.320;43.990;2023-04-03T08:36:17;99812.88;;;35.20;16.82
74973;BME280;63529;56.320;43.990;2023-04-03T08:38:43;99821.22;;;35.00;17.17
74973;BME280;63529;56.320;43.990;2023-04-03T08:46:56;99818.88;;;34.59;17.53
74973;BME280;63529;56.320;43.990;2023-04-03T08:49:24;99814.03;;;33.96;17.46
74973;BME280;63529;56.320;43.990;2023-04-03T08:51:52;99812.72;;;32.92;18.53
74973;BME280;63529;56.320;43.990;2023-04-03T08:54:27;99821.56;;;31.98;19.12
74973;BME280;63529;56.320;43.990;2023-04-03T08:56:54;99820.19;;;30.91;19.20
74973;BME280;63529;56.320;43.990;2023-04-03T08:59:27;99815.94;;;30.51;19.77
74973;BME280;63529;56.320;43.990;2023-04-03T09:01:56;99814.78;;;29.98;20.00
74973;BME280;63529;56.320;43.990;2023-04-03T09:04:25;99811.91;;;29.27;20.50
74973;BME280;63529;56.320;43.990;2023-04-03T09:07:02;99807.13;;;28.33;21.20
74973;BME280;63529;56.320;43.990;2023-04-03T09:09:33;99812.69;;;27.52;21.75
74973;BME280;63529;56.320;43.990;2023-04-03T09:15:18;99815.50;;;26.12;23.31
74973;BME280;63529;56.320;43.990;2023-04-03T09:18:21;99808.22;;;25.74;23.71
74973;BME280;63529;56.320;43.990;2023-04-03T09:23:35;99811.53;;;25.22;24.67
74973;BME280;63529;56.320;43.990;2023-04-03T09:26:42;99809.56;;;25.03;25.33
74973;BME280;63529;56.320;43.990;2023-04-03T09:29:05;99806.94;;;24.71;25.16
74973;BME280;63529;56.320;43.990;2023-04-03T09:31:40;99818.03;;;24.27;25.08
74973;BME280;63529;56.320;43.990;2023-04-03T09:34:15;99815.75;;;23.82;25.65
74973;BME280;63529;56.320;43.990;2023-04-03T09:39:21;99819.00;;;23.28;26.56
74973;BME280;63529;56.320;43.990;2023-04-03T09:42:05;99824.03;;;23.01;26.61
74973;BME280;63529;56.320;43.990;2023-04-03T09:44:38;99822.53;;;22.76;26.90
74973;BME280;63529;56.320;43.990;2023-04-03T09:47:25;99829.47;;;22.49;28.00
74973;BME280;63529;56.320;43.990;2023-04-03T09:52:39;99812.81;;;22.14;28.37
74973;BME280;63529;56.320;43.990;2023-04-03T09:55:26;99816.75;;;22.04;28.50
74973;BME280;63529;56.320;43.990;2023-04-03T09:57:57;99815.50;;;22.02;28.46
74973;BME280;63529;56.320;43.990;2023-04-03T10:00:35;99826.03;;;22.03;28.42
74973;BME280;63529;56.320;43.990;2023-04-03T10:03:02;99815.75;;;22.09;28.33
74973;BME280;63529;56.320;43.990;2023-04-03T10:05:38;99820.63;;;22.15;28.19
74973;BME280;63529;56.320;43.990;2023-04-03T10:10:46;99818.38;;;22.17;27.91
74973;BME280;63529;56.320;43.990;2023-04-03T10:13:15;99826.50;;;22.05;27.74
74973;BME280;63529;56.320;43.990;2023-04-03T10:15:50;99806.53;;;21.89;27.64
74973;BME280;63529;56.320;43.990;2023-04-03T10:21:14;99809.66;;;21.54;28.21
74973;BME280;63529;56.320;43.990;2023-04-03T10:23:57;99808.91;;;21.33;28.73
74973;BME280;63529;56.320;43.990;2023-04-03T10:30:00;99802.44;;;20.83;29.50
74973;BME280;63529;56.320;43.990;2023-04-03T10:41:22;99798.66;;;20.76;30.08
74973;BME280;63529;56.320;43.990;2023-04-03T10:44:04;99790.38;;;20.72;30.26
74973;BME280;63529;56.320;43.990;2023-04-03T10:46:49;99797.72;;;20.72;30.43
74973;BME280;63529;56.320;43.990;2023-04-03T10:49:35;99791.69;;;20.66;30.20
74973;BME280;63529;56.320;43.990;2023-04-03T10:57:39;99783.34;;;20.50;30.73
74973;BME280;63529;56.320;43.990;2023-04-03T11:00:15;99775.56;;;20.40;30.40
74973;BME280;63529;56.320;43.990;2023-04-03T11:03:14;99783.38;;;20.42;31.19
74973;BME280;63529;56.320;43.990;2023-04-03T11:05:47;99788.81;;;20.42;31.09
74973;BME280;63529;56.320;43.990;2023-04-03T11:08:51;99792.06;;;20.26;31.12
74973;BME280;63529;56.320;43.990;2023-04-03T11:11:26;99789.78;;;20.08;31.14
74973;BME280;63529;56.320;43.990;2023-04-03T11:16:27;99777.56;;;19.93;31.68
74973;BME280;63529;56.320;43.990;2023-04-03T11:19:02;99784.88;;;20.01;31.49
74973;BME280;63529;56.320;43.990;2023-04-03T11:21:33;99778.97;;;19.99;31.36
74973;BME280;63529;56.320;43.990;2023-04-03T11:24:03;99786.59;;;20.05;31.63
74973;BME280;63529;56.320;43.990;2023-04-03T11:26:36;99773.91;;;19.97;31.27
74973;BME280;63529;56.320;43.990;2023-04-03T11:29:08;99777.25;;;19.94;31.66
74973;BME280;63529;56.320;43.990;2023-04-03T11:36:56;99768.81;;;19.87;31.89
74973;BME280;63529;56.320;43.990;2023-04-03T11:39:35;99768.03;;;19.87;31.88
74973;BME280;63529;56.320;43.990;2023-04-03T11:42:37;99767.06;;;19.91;31.95
74973;BME280;63529;56.320;43.990;2023-04-03T11:53:03;99750.19;;;19.86;32.20
74973;BME280;63529;56.320;43.990;2023-04-03T12:08:50;99747.75;;;19.63;32.15
74973;BME280;63529;56.320;43.990;2023-04-03T12:11:32;99733.41;;;19.54;32.55
74973;BME280;63529;56.320;43.990;2023-04-03T12:32:32;99734.69;;;19.57;33.74
74973;BME280;63529;56.320;43.990;2023-04-03T12:35:27;99728.34;;;19.44;34.29
74973;BME280;63529;56.320;43.990;2023-04-03T12:40:52;99731.59;;;19.20;34.33
74973;BME280;63529;56.320;43.990;2023-04-03T12:46:09;99722.38;;;19.04;33.87
74973;BME280;63529;56.320;43.990;2023-04-03T12:48:58;99727.66;;;19.00;34.20
74973;BME280;63529;56.320;43.990;2023-04-03T12:51:43;99732.59;;;18.98;34.28
74973;BME280;63529;56.320;43.990;2023-04-03T12:54:27;99722.88;;;18.88;34.24
74973;BME280;63529;56.320;43.990;2023-04-03T12:59:41;99727.34;;;18.67;34.10
74973;BME280;63529;56.320;43.990;2023-04-03T13:02:35;99734.00;;;18.52;33.91
74973;BME280;63529;56.320;43.990;2023-04-03T13:05:08;99732.53;;;18.37;33.90
74973;BME280;63529;56.320;43.990;2023-04-03T13:07:37;99732.53;;;18.29;34.34
74973;BME280;63529;56.320;43.990;2023-04-03T13:12:34;99731.22;;;18.09;34.41
74973;BME280;63529;56.320;43.990;2023-04-03T13:15:11;99736.88;;;17.99;34.48
74973;BME280;63529;56.320;43.990;2023-04-03T13:17:38;99729.56;;;17.90;34.99
74973;BME280;63529;56.320;43.990;2023-04-03T13:20:34;99723.84;;;17.92;35.46
74973;BME280;63529;56.320;43.990;2023-04-03T13:23:03;99723.56;;;17.94;35.26
74973;BME280;63529;56.320;43.990;2023-04-03T13:25:33;99733.84;;;17.92;35.04
74973;BME280;63529;56.320;43.990;2023-04-03T13:28:01;99726.41;;;17.88;35.14
74973;BME280;63529;56.320;43.990;2023-04-03T13:30:30;99726.41;;;17.88;35.46
74973;BME280;63529;56.320;43.990;2023-04-03T13:33:01;99727.78;;;17.86;35.31
74973;BME280;63529;56.320;43.990;2023-04-03T13:35:32;99725.72;;;17.83;35.56
74973;BME280;63529;56.320;43.990;2023-04-03T13:38:01;99729.22;;;17.75;35.30
74973;BME280;63529;56.320;43.990;2023-04-03T13:40:28;99735.31;;;17.67;35.25
74973;BME280;63529;56.320;43.990;2023-04-03T13:43:06;99731.31;;;17.55;35.27
74973;BME280;63529;56.320;43.990;2023-04-03T13:45:54;99727.75;;;17.46;35.06
74973;BME280;63529;56.320;43.990;2023-04-03T13:48:20;99736.00;;;17.41;35.30
74973;BME280;63529;56.320;43.990;2023-04-03T13:50:59;99727.09;;;17.41;35.23
74973;BME280;63529;56.320;43.990;2023-04-03T13:53:26;99724.59;;;17.44;35.18
74973;BME280;63529;56.320;43.990;2023-04-03T13:56:09;99726.03;;;17.50;35.13
74973;BME280;63529;56.320;43.990;2023-04-03T13:58:36;99724.31;;;17.54;35.09
74973;BME280;63529;56.320;43.990;2023-04-03T14:06:15;99723.16;;;17.47;35.26
74973;BME280;63529;56.320;43.990;2023-04-03T14:08:44;99726.81;;;17.42;35.54
74973;BME280;63529;56.320;43.990;2023-04-03T14:11:18;99733.13;;;17.38;35.76
74973;BME280;63529;56.320;43.990;2023-04-03T14:13:47;99732.09;;;17.25;35.52
74973;BME280;63529;56.320;43.990;2023-04-03T14:16:15;99734.56;;;17.13;35.76
74973;BME280;63529;56.320;43.990;2023-04-03T14:18:45;99735.41;;;16.99;35.86
74973;BME280;63529;56.320;43.990;2023-04-03T14:21:14;99732.00;;;16.85;35.65
74973;BME280;63529;56.320;43.990;2023-04-03T14:23:41;99728.56;;;16.71;35.81
74973;BME280;63529;56.320;43.990;2023-04-03T14:26:16;99730.16;;;16.58;35.74
74973;BME280;63529;56.320;43.990;2023-04-03T14:28:45;99736.38;;;16.45;35.83
74973;BME280;63529;56.320;43.990;2023-04-03T14:31:12;99735.78;;;16.34;36.02
74973;BME280;63529;56.320;43.990;2023-04-03T14:33:39;99725.25;;;16.24;36.11
74973;BME280;63529;56.320;43.990;2023-04-03T14:36:12;99729.25;;;16.13;36.25
74973;BME280;63529;56.320;43.990;2023-04-03T14:38:38;99728.16;;;16.00;36.45
74973;BME280;63529;56.320;43.990;2023-04-03T14:41:04;99733.56;;;15.86;36.58
74973;BME280;63529;56.320;43.990;2023-04-03T14:43:30;99728.97;;;15.73;36.77
74973;BME280;63529;56.320;43.990;2023-04-03T14:45:56;99734.56;;;15.58;36.99
74973;BME280;63529;56.320;43.990;2023-04-03T14:48:24;99738.56;;;15.46;37.31
74973;BME280;63529;56.320;43.990;2023-04-03T14:50:52;99730.97;;;15.35;37.31